Skip Navigation Links Skip Navigation Links

Current Weather

Lawrence Muni, Lawrence, Kan.

For information only: do not use for flight planning or navigation.
Latest weather
Observation time Monday, October 18, 2021 2:52 PM CDT
Local time Monday, October 18, 2021 3:06 PM CDT
Flight conditions Visual Meteorological Conditions
Winds
Wind direction South-Southeast (160°)
Wind speed 18 mph
Wind gusting to 29 mph
Visibility 10 mi.
Sky condition
Ceiling unlimited
Sky clear
Temperature 74°F
Dewpoint 43°F
Altimeter 30.01 in.Hg
Derived measurements
Relative humidity 33%
Density altitude 1835 ft.
Sea-level pressure 30.00 in.Hg
Remarks
Fully automated report.
Automated weather observing station without precipitation discriminator.
METAR KLWC 181952Z AUTO 16016G25KT 10SM CLR 23/06 A3001 RMK AO1 SLP160 T02330061

Settings

Location code

InnerDrive.Weather 4.0.6770.0 Release CLR 4.0.30319.42000
Copyright ©2018 Inner Drive Technology. All rights reserved. Portions Copyright ©1986-2018 David Braverman.

Find weather

Site navigation


Skip Navigation Links

Place info

Page info

PayPal - The safer, easier way to pay online!

Return home.

Copyright ©2021 Inner Drive Technology. Purveyors of fine, hand-crafted computer software. Page printed 2021-10-18T20:06:06 UTC.